createdAt,value
2023-03-19T00:00:34.433Z,8.20
2023-03-19T00:03:01.415Z,8.30
2023-03-19T00:05:28.257Z,8.40
2023-03-19T00:07:54.994Z,8.40
2023-03-19T00:10:21.696Z,8.40
2023-03-19T00:12:48.634Z,8.30
2023-03-19T00:15:15.972Z,8.30
2023-03-19T00:17:43.420Z,8.30
2023-03-19T00:20:12.572Z,8.10
2023-03-19T00:22:39.991Z,8.10
2023-03-19T00:25:08.572Z,7.90
2023-03-19T00:27:36.852Z,7.90
2023-03-19T00:30:05.336Z,7.70
2023-03-19T00:32:33.522Z,7.90
2023-03-19T00:35:00.632Z,7.90
2023-03-19T00:37:27.704Z,7.90
2023-03-19T00:39:54.394Z,7.90
2023-03-19T00:42:21.306Z,7.90
2023-03-19T00:44:47.933Z,8.00
2023-03-19T00:47:14.522Z,7.90
2023-03-19T00:49:41.143Z,7.80
2023-03-19T00:52:08.307Z,7.80
2023-03-19T00:54:35.000Z,7.90
2023-03-19T00:57:01.773Z,7.60
2023-03-19T00:59:29.540Z,7.60
2023-03-19T01:01:56.230Z,7.70
2023-03-19T01:04:23.264Z,7.70
2023-03-19T01:06:50.795Z,7.70
2023-03-19T01:09:17.634Z,7.70
2023-03-19T01:11:44.387Z,7.60
2023-03-19T01:14:11.726Z,7.50
2023-03-19T01:16:38.767Z,7.40
2023-03-19T01:19:06.369Z,7.30
2023-03-19T01:21:33.979Z,7.30
2023-03-19T01:24:00.710Z,7.40
2023-03-19T01:26:27.785Z,7.40
2023-03-19T01:28:54.571Z,7.50
2023-03-19T01:31:22.826Z,7.40
2023-03-19T01:33:49.547Z,7.50
2023-03-19T01:36:16.606Z,7.40
2023-03-19T01:38:43.420Z,7.40
2023-03-19T01:41:10.110Z,7.40
2023-03-19T01:43:37.492Z,7.50
2023-03-19T01:46:21.745Z,7.40
2023-03-19T01:48:50.100Z,7.50
2023-03-19T01:51:20.564Z,7.30
2023-03-19T01:53:52.447Z,7.50
2023-03-19T01:56:29.949Z,7.50
2023-03-19T01:59:01.162Z,7.20
2023-03-19T02:01:29.500Z,7.20
2023-03-19T02:03:57.183Z,7.20
2023-03-19T02:06:24.205Z,7.40
2023-03-19T02:08:52.542Z,7.50
2023-03-19T02:11:20.301Z,7.50
2023-03-19T02:13:47.419Z,7.50
2023-03-19T02:16:15.529Z,7.50
2023-03-19T02:18:43.219Z,7.60
2023-03-19T02:21:17.948Z,7.70
2023-03-19T02:24:27.667Z,7.70
2023-03-19T02:26:56.164Z,7.80
2023-03-19T02:29:22.804Z,7.70
2023-03-19T02:31:49.519Z,7.70
2023-03-19T02:34:19.215Z,7.80
2023-03-19T02:36:51.992Z,7.70
2023-03-19T02:39:47.932Z,7.50
2023-03-19T02:42:17.140Z,7.80
2023-03-19T02:44:43.887Z,7.80
2023-03-19T02:47:10.695Z,7.80
2023-03-19T02:49:37.516Z,7.70
2023-03-19T02:52:04.446Z,7.70
2023-03-19T02:54:31.121Z,7.60
2023-03-19T02:56:58.028Z,7.60
2023-03-19T02:59:24.728Z,7.60
2023-03-19T03:01:51.475Z,7.70
2023-03-19T03:04:18.217Z,7.60
2023-03-19T03:06:45.239Z,7.50
2023-03-19T03:09:13.440Z,7.70
2023-03-19T03:11:41.692Z,7.70
2023-03-19T03:14:08.444Z,7.90
2023-03-19T03:16:35.277Z,7.90
2023-03-19T03:19:02.494Z,7.70
2023-03-19T03:21:29.552Z,7.70
2023-03-19T03:23:56.412Z,7.70
2023-03-19T03:26:23.149Z,7.70
2023-03-19T03:28:49.972Z,7.70
2023-03-19T03:31:16.833Z,7.70
2023-03-19T03:33:43.566Z,7.80
2023-03-19T03:36:10.496Z,7.50
2023-03-19T03:38:37.391Z,7.70
2023-03-19T03:41:04.730Z,7.70
2023-03-19T03:43:31.684Z,7.80
2023-03-19T03:45:58.514Z,7.80
2023-03-19T03:48:25.982Z,7.90
2023-03-19T03:50:52.677Z,7.90
2023-03-19T03:53:19.587Z,7.90
2023-03-19T03:55:46.487Z,7.80
2023-03-19T03:58:13.231Z,7.80
2023-03-19T04:00:40.489Z,7.90
2023-03-19T04:03:07.293Z,8.00
2023-03-19T04:05:34.030Z,7.90
2023-03-19T04:08:00.759Z,7.80
2023-03-19T04:10:27.759Z,7.50
2023-03-19T04:12:54.495Z,7.50
2023-03-19T04:15:21.624Z,7.60
2023-03-19T04:17:48.794Z,7.80
2023-03-19T04:20:16.426Z,7.90
2023-03-19T04:22:43.229Z,7.80
2023-03-19T04:25:10.226Z,7.80
2023-03-19T04:27:36.943Z,7.90
2023-03-19T04:30:04.572Z,7.90
2023-03-19T04:32:31.188Z,7.90
2023-03-19T04:34:58.779Z,7.80
2023-03-19T04:37:25.444Z,7.90
2023-03-19T04:39:52.099Z,7.90
2023-03-19T04:42:19.161Z,8.00
2023-03-19T04:44:45.795Z,7.90
2023-03-19T04:47:12.680Z,8.00
2023-03-19T04:49:39.348Z,7.90
2023-03-19T04:52:06.136Z,8.00
2023-03-19T04:54:32.998Z,8.00
2023-03-19T04:56:59.670Z,8.00
2023-03-19T04:59:26.419Z,8.00
2023-03-19T05:01:53.484Z,8.00
2023-03-19T05:04:20.265Z,8.10
2023-03-19T05:06:47.061Z,8.10
2023-03-19T05:09:13.772Z,8.10
2023-03-19T05:11:40.441Z,7.90
2023-03-19T05:14:07.209Z,8.00
2023-03-19T05:16:35.680Z,8.10
2023-03-19T05:19:02.360Z,8.00
2023-03-19T05:21:29.024Z,7.90
2023-03-19T05:23:57.205Z,7.70
2023-03-19T05:26:24.044Z,7.70
2023-03-19T05:28:50.950Z,7.90
2023-03-19T05:31:17.615Z,8.00
2023-03-19T05:33:44.302Z,8.10
2023-03-19T05:36:13.010Z,8.00
2023-03-19T05:38:39.655Z,8.00
2023-03-19T05:41:07.034Z,8.10
2023-03-19T05:43:34.209Z,8.20
2023-03-19T05:46:00.879Z,8.30
2023-03-19T05:48:27.553Z,8.30
2023-03-19T05:50:54.252Z,8.20
2023-03-19T05:53:21.483Z,8.20
2023-03-19T05:55:48.354Z,8.30
2023-03-19T05:58:15.686Z,8.30
2023-03-19T06:00:42.723Z,8.20
2023-03-19T06:03:09.445Z,8.50
2023-03-19T06:05:36.526Z,8.60
2023-03-19T06:08:03.363Z,8.70
2023-03-19T06:10:30.104Z,8.90
2023-03-19T06:12:57.089Z,8.90
2023-03-19T06:15:23.907Z,9.00
2023-03-19T06:17:50.682Z,9.10
2023-03-19T06:20:17.762Z,9.20
2023-03-19T06:22:44.874Z,9.20
2023-03-19T06:25:12.137Z,9.30
2023-03-19T06:27:39.041Z,9.30
2023-03-19T06:30:07.280Z,9.30
2023-03-19T06:32:34.374Z,9.30
2023-03-19T06:35:01.039Z,9.30
2023-03-19T06:37:28.034Z,9.40
2023-03-19T06:39:54.790Z,9.40
2023-03-19T06:42:22.175Z,9.40
2023-03-19T06:44:50.684Z,9.50
2023-03-19T06:47:18.606Z,9.50
2023-03-19T06:49:45.646Z,9.60
2023-03-19T06:52:12.375Z,9.50
2023-03-19T06:54:39.180Z,9.50
2023-03-19T06:57:06.093Z,9.60
2023-03-19T06:59:32.708Z,9.60
2023-03-19T07:01:59.544Z,9.70
2023-03-19T07:04:26.799Z,9.70
2023-03-19T07:06:53.483Z,9.80
2023-03-19T07:09:20.195Z,9.70
2023-03-19T07:11:46.854Z,9.80
2023-03-19T07:14:13.544Z,9.80
2023-03-19T07:16:40.283Z,9.80
2023-03-19T07:19:07.187Z,9.80
2023-03-19T07:21:34.328Z,9.90
2023-03-19T07:24:01.016Z,9.90
2023-03-19T07:26:27.743Z,9.90
2023-03-19T07:28:54.398Z,10.00
2023-03-19T07:31:21.156Z,10.00
2023-03-19T07:33:47.850Z,9.90
2023-03-19T07:36:14.545Z,10.00
2023-03-19T07:38:41.195Z,10.00
2023-03-19T07:41:07.905Z,10.10
2023-03-19T07:43:34.538Z,10.10
2023-03-19T07:46:01.487Z,10.10
2023-03-19T07:48:28.306Z,10.20
2023-03-19T07:50:55.078Z,10.20
2023-03-19T07:53:21.987Z,10.20
2023-03-19T07:55:49.183Z,10.20
2023-03-19T07:58:16.799Z,10.30
2023-03-19T08:00:44.906Z,10.30
2023-03-19T08:03:11.709Z,10.40
2023-03-19T08:05:38.526Z,10.40
2023-03-19T08:08:05.493Z,10.50
2023-03-19T08:10:35.495Z,10.50
2023-03-19T08:13:05.057Z,10.50
2023-03-19T08:15:31.761Z,10.60
2023-03-19T08:18:03.686Z,10.60
2023-03-19T08:20:30.773Z,10.60
2023-03-19T08:22:57.808Z,10.80
2023-03-19T08:25:26.013Z,10.80
2023-03-19T08:27:52.637Z,10.80
2023-03-19T08:30:19.507Z,10.80
2023-03-19T08:32:46.545Z,10.90
2023-03-19T08:35:14.125Z,10.90
2023-03-19T08:37:40.951Z,11.00
2023-03-19T08:40:08.189Z,11.10
2023-03-19T08:42:34.876Z,11.10
2023-03-19T08:45:01.507Z,11.10
2023-03-19T08:47:28.170Z,11.10
2023-03-19T08:49:54.803Z,11.40
2023-03-19T08:52:21.550Z,11.70
2023-03-19T08:54:48.199Z,11.60
2023-03-19T08:57:14.852Z,11.70
2023-03-19T08:59:41.705Z,11.90
2023-03-19T09:02:11.811Z,11.90
2023-03-19T09:04:43.494Z,11.60
2023-03-19T09:07:13.226Z,11.50
2023-03-19T09:09:40.983Z,11.60
2023-03-19T09:12:09.379Z,11.60
2023-03-19T09:14:37.260Z,11.50
2023-03-19T09:17:04.801Z,11.50
2023-03-19T09:19:31.965Z,11.60
2023-03-19T09:21:58.731Z,11.70
2023-03-19T09:24:26.207Z,11.70
2023-03-19T09:26:53.048Z,11.80
2023-03-19T09:29:19.889Z,11.90
2023-03-19T09:31:46.707Z,11.90
2023-03-19T09:34:13.946Z,12.00
2023-03-19T09:36:40.996Z,12.00
2023-03-19T09:39:08.444Z,12.10
2023-03-19T09:42:03.529Z,12.10
2023-03-19T09:44:36.110Z,12.30
2023-03-19T09:47:24.182Z,12.60
2023-03-19T09:49:53.326Z,12.80
2023-03-19T09:52:50.929Z,13.10
2023-03-19T09:55:24.033Z,12.90
2023-03-19T09:57:53.304Z,12.80
2023-03-19T10:00:33.897Z,12.80
2023-03-19T10:03:26.972Z,12.70
2023-03-19T10:06:22.238Z,12.80
2023-03-19T10:09:04.384Z,12.80
2023-03-19T10:12:08.309Z,12.80
2023-03-19T10:15:09.011Z,12.90
2023-03-19T10:17:45.483Z,12.80
2023-03-19T10:20:29.645Z,12.80
2023-03-19T10:23:23.691Z,12.80
2023-03-19T10:25:54.222Z,12.90
2023-03-19T10:28:22.364Z,12.90
2023-03-19T10:31:02.608Z,13.00
2023-03-19T10:33:52.154Z,13.10
2023-03-19T10:36:21.556Z,13.10
2023-03-19T10:38:48.323Z,13.20
2023-03-19T10:41:29.230Z,13.30
2023-03-19T10:44:06.085Z,13.60
2023-03-19T10:46:40.238Z,14.00
2023-03-19T10:49:13.133Z,13.90
2023-03-19T10:51:43.102Z,14.00
2023-03-19T10:54:28.008Z,14.20
2023-03-19T10:56:59.984Z,14.40
2023-03-19T10:59:33.342Z,14.50
2023-03-19T11:02:14.299Z,14.90
2023-03-19T11:04:40.992Z,14.90
2023-03-19T11:07:13.870Z,14.80
2023-03-19T11:09:44.463Z,15.00
2023-03-19T11:12:31.507Z,15.10
2023-03-19T11:14:58.926Z,15.30
2023-03-19T11:17:39.014Z,15.20
2023-03-19T11:20:19.914Z,15.20
2023-03-19T11:22:47.462Z,15.50
2023-03-19T11:25:23.328Z,15.70
2023-03-19T11:28:14.158Z,15.60
2023-03-19T11:30:46.857Z,15.60
2023-03-19T11:34:10.602Z,16.00
2023-03-19T11:37:11.302Z,16.30
2023-03-19T11:40:06.868Z,16.40
2023-03-19T11:42:57.439Z,16.40
2023-03-19T11:45:24.340Z,16.40
2023-03-19T11:48:06.622Z,17.00
2023-03-19T11:50:57.556Z,17.30
2023-03-19T11:53:35.413Z,17.60
2023-03-19T11:56:19.545Z,17.10
2023-03-19T11:58:49.193Z,17.10
2023-03-19T12:01:34.767Z,16.60
2023-03-19T12:05:00.211Z,16.80
2023-03-19T12:07:38.837Z,16.80
2023-03-19T12:10:30.085Z,17.10
2023-03-19T12:13:23.845Z,17.50
2023-03-19T12:15:56.370Z,17.70
2023-03-19T12:18:59.869Z,17.70
2023-03-19T12:21:41.316Z,18.10
2023-03-19T12:24:23.511Z,18.40
2023-03-19T12:26:59.762Z,18.30
2023-03-19T12:29:43.216Z,17.90
2023-03-19T12:32:46.568Z,17.70
2023-03-19T12:35:18.014Z,17.40
2023-03-19T12:37:55.253Z,17.60
2023-03-19T12:40:37.363Z,17.70
2023-03-19T12:43:21.768Z,17.20
2023-03-19T12:45:58.672Z,17.10
2023-03-19T12:48:31.060Z,17.20
2023-03-19T12:51:05.711Z,17.50
2023-03-19T12:53:50.766Z,17.10
2023-03-19T12:56:54.185Z,17.10
2023-03-19T12:59:49.283Z,17.00
2023-03-19T13:02:38.377Z,17.20
2023-03-19T13:05:31.656Z,17.20
2023-03-19T13:08:01.729Z,17.20
2023-03-19T13:10:31.885Z,17.50
2023-03-19T13:13:00.231Z,17.60
2023-03-19T13:15:35.719Z,17.50
2023-03-19T13:18:15.839Z,17.60
2023-03-19T13:21:10.702Z,17.70
2023-03-19T13:23:41.484Z,18.00
2023-03-19T13:26:12.604Z,17.70
2023-03-19T13:29:08.026Z,17.50
2023-03-19T13:31:36.624Z,17.30
2023-03-19T13:34:20.587Z,17.70
2023-03-19T13:37:07.011Z,18.00
2023-03-19T13:39:35.759Z,18.20
2023-03-19T13:42:37.272Z,18.20
2023-03-19T13:45:37.473Z,18.10
2023-03-19T13:48:27.164Z,18.00
2023-03-19T13:51:06.166Z,17.70
2023-03-19T13:53:39.233Z,17.50
2023-03-19T13:56:28.540Z,17.60
2023-03-19T13:59:32.119Z,17.40
2023-03-19T14:02:00.238Z,17.30
2023-03-19T14:04:37.256Z,17.00
2023-03-19T14:07:17.751Z,16.80
2023-03-19T14:09:49.478Z,16.80
2023-03-19T14:12:16.279Z,16.90
2023-03-19T14:15:05.415Z,16.80
2023-03-19T14:17:42.402Z,16.90
2023-03-19T14:20:13.190Z,17.00
2023-03-19T14:23:02.040Z,17.20
2023-03-19T14:25:51.700Z,17.10
2023-03-19T14:28:23.207Z,17.10
2023-03-19T14:30:50.356Z,17.10
2023-03-19T14:33:40.000Z,17.00
2023-03-19T14:36:08.178Z,16.70
2023-03-19T14:38:42.716Z,16.50
2023-03-19T14:41:15.447Z,16.50
2023-03-19T14:43:57.382Z,16.60
2023-03-19T14:46:48.404Z,16.50
2023-03-19T14:49:56.864Z,16.50
2023-03-19T14:52:36.511Z,16.30
2023-03-19T14:55:10.324Z,16.10
2023-03-19T14:57:37.015Z,15.80
2023-03-19T15:00:07.440Z,15.70
2023-03-19T15:02:38.881Z,15.70
2023-03-19T15:05:15.467Z,15.30
2023-03-19T15:07:45.885Z,15.30
2023-03-19T15:10:18.892Z,15.20
2023-03-19T15:13:04.085Z,15.10
2023-03-19T15:15:34.808Z,14.80
2023-03-19T15:18:09.648Z,14.40
2023-03-19T15:20:44.486Z,14.30
2023-03-19T15:23:26.130Z,14.30
2023-03-19T15:25:58.096Z,14.40
2023-03-19T15:28:28.406Z,14.40
2023-03-19T15:31:20.328Z,14.50
2023-03-19T15:33:50.902Z,14.60
2023-03-19T15:36:24.147Z,14.60
2023-03-19T15:38:57.052Z,14.60
2023-03-19T15:41:26.279Z,14.60
2023-03-19T15:43:53.836Z,14.50
2023-03-19T15:46:25.185Z,14.40
2023-03-19T15:48:54.986Z,14.40
2023-03-19T15:51:23.726Z,14.40
2023-03-19T15:53:50.650Z,14.40
2023-03-19T15:56:19.399Z,14.50
2023-03-19T15:58:51.321Z,14.40
2023-03-19T16:01:19.559Z,14.50
2023-03-19T16:03:55.415Z,14.60
2023-03-19T16:06:29.098Z,14.70
2023-03-19T16:09:06.606Z,14.90
2023-03-19T16:11:38.684Z,14.90
2023-03-19T16:14:14.270Z,14.90
2023-03-19T16:16:42.510Z,14.80
2023-03-19T16:19:50.256Z,14.90
2023-03-19T16:22:22.542Z,15.00
2023-03-19T16:24:51.645Z,15.00
2023-03-19T16:27:21.416Z,15.00
2023-03-19T16:29:55.633Z,15.00
2023-03-19T16:32:30.528Z,15.00
2023-03-19T16:35:11.554Z,15.00
2023-03-19T16:37:41.067Z,14.90
2023-03-19T16:40:13.844Z,14.80
2023-03-19T16:42:44.130Z,14.80
2023-03-19T16:45:27.409Z,14.80
2023-03-19T16:47:56.911Z,14.40
2023-03-19T16:50:44.046Z,14.20
2023-03-19T16:53:24.288Z,14.30
2023-03-19T16:55:53.207Z,14.20
2023-03-19T16:58:34.706Z,14.00
2023-03-19T17:01:01.764Z,13.70
2023-03-19T17:03:30.204Z,13.60
2023-03-19T17:05:57.504Z,13.50
2023-03-19T17:08:26.152Z,13.50
2023-03-19T17:10:54.007Z,13.30
2023-03-19T17:13:28.305Z,13.20
2023-03-19T17:15:57.235Z,13.20
2023-03-19T17:18:26.615Z,13.20
2023-03-19T17:20:58.058Z,13.20
2023-03-19T17:23:27.069Z,13.20
2023-03-19T17:25:54.641Z,13.20
2023-03-19T17:28:21.492Z,13.00
2023-03-19T17:30:48.499Z,12.80
2023-03-19T17:33:21.686Z,12.60
2023-03-19T17:35:48.384Z,12.50
2023-03-19T17:38:18.367Z,12.50
2023-03-19T17:40:46.344Z,12.40
2023-03-19T17:43:14.008Z,12.30
2023-03-19T17:45:45.870Z,12.30
2023-03-19T17:48:22.055Z,12.20
2023-03-19T17:50:49.991Z,12.10
2023-03-19T17:53:18.513Z,12.10
2023-03-19T17:55:46.353Z,12.20
2023-03-19T17:58:18.525Z,12.10
2023-03-19T18:00:46.942Z,11.90
2023-03-19T18:03:16.463Z,11.80
2023-03-19T18:05:44.062Z,11.60
2023-03-19T18:08:16.181Z,11.30
2023-03-19T18:10:43.565Z,11.30
2023-03-19T18:13:10.703Z,11.40
2023-03-19T18:15:40.021Z,11.40
2023-03-19T18:18:11.093Z,11.20
2023-03-19T18:20:39.568Z,11.10
2023-03-19T18:23:06.758Z,11.00
2023-03-19T18:25:35.550Z,11.00
2023-03-19T18:28:05.948Z,10.90
2023-03-19T18:30:35.188Z,10.70
2023-03-19T18:33:04.575Z,10.70
2023-03-19T18:35:38.516Z,10.80
2023-03-19T18:38:13.071Z,10.60
2023-03-19T18:40:39.699Z,10.60
2023-03-19T18:43:07.149Z,10.50
2023-03-19T18:45:33.917Z,10.60
2023-03-19T18:48:00.653Z,10.40
2023-03-19T18:50:30.300Z,10.20
2023-03-19T18:52:57.160Z,10.10
2023-03-19T18:55:28.766Z,10.30
2023-03-19T18:58:01.597Z,10.40
2023-03-19T19:00:31.496Z,10.50
2023-03-19T19:02:58.659Z,10.50
2023-03-19T19:05:28.080Z,10.30
2023-03-19T19:08:00.501Z,10.20
2023-03-19T19:10:32.520Z,10.20
2023-03-19T19:13:00.239Z,10.10
2023-03-19T19:15:31.133Z,10.00
2023-03-19T19:17:57.940Z,9.90
2023-03-19T19:20:29.711Z,10.00
2023-03-19T19:22:56.862Z,9.90
2023-03-19T19:25:26.745Z,9.90
2023-03-19T19:28:02.461Z,9.90
2023-03-19T19:30:29.768Z,9.90
2023-03-19T19:32:57.315Z,10.00
2023-03-19T19:35:26.798Z,9.80
2023-03-19T19:37:54.124Z,9.80
2023-03-19T19:40:24.941Z,9.80
2023-03-19T19:42:52.881Z,9.60
2023-03-19T19:45:41.620Z,9.70
2023-03-19T19:48:17.465Z,9.60
2023-03-19T19:50:46.250Z,9.70
2023-03-19T19:53:13.269Z,9.80
2023-03-19T19:55:40.318Z,9.80
2023-03-19T19:58:16.809Z,9.80
2023-03-19T20:00:47.765Z,10.00
2023-03-19T20:03:28.024Z,9.90
2023-03-19T20:05:55.249Z,9.60
2023-03-19T20:08:21.927Z,9.30
2023-03-19T20:10:49.905Z,9.50
2023-03-19T20:13:27.628Z,9.40
2023-03-19T20:15:57.020Z,9.40
2023-03-19T20:18:28.099Z,9.40
2023-03-19T20:20:57.346Z,9.40
2023-03-19T20:23:24.026Z,9.40
2023-03-19T20:25:51.887Z,9.40
2023-03-19T20:28:26.245Z,9.50
2023-03-19T20:30:54.151Z,9.40
2023-03-19T20:33:21.530Z,9.50
2023-03-19T20:35:48.366Z,9.40
2023-03-19T20:38:15.633Z,9.20
2023-03-19T20:40:46.458Z,9.10
2023-03-19T20:43:34.071Z,9.20
2023-03-19T20:46:04.340Z,9.40
2023-03-19T20:48:32.385Z,9.20
2023-03-19T20:51:01.302Z,9.10
2023-03-19T20:53:28.743Z,9.00
2023-03-19T20:55:56.386Z,9.10
2023-03-19T20:58:29.665Z,9.10
2023-03-19T21:00:57.837Z,9.20
2023-03-19T21:03:28.156Z,9.20
2023-03-19T21:06:01.791Z,9.20
2023-03-19T21:08:35.663Z,9.00
2023-03-19T21:11:03.354Z,8.90
2023-03-19T21:13:30.225Z,9.00
2023-03-19T21:15:56.956Z,9.00
2023-03-19T21:18:24.200Z,9.20
2023-03-19T21:20:56.885Z,9.20
2023-03-19T21:23:34.606Z,9.00
2023-03-19T21:26:22.187Z,9.00
2023-03-19T21:29:00.519Z,9.10
2023-03-19T21:31:27.260Z,9.10
2023-03-19T21:33:55.372Z,9.20
2023-03-19T21:36:23.814Z,9.10
2023-03-19T21:38:52.451Z,9.00
2023-03-19T21:41:24.857Z,8.80
2023-03-19T21:43:57.228Z,8.90
2023-03-19T21:46:27.119Z,8.80
2023-03-19T21:48:55.289Z,8.90
2023-03-19T21:51:23.526Z,9.00
2023-03-19T21:53:50.164Z,8.90
2023-03-19T21:56:22.834Z,8.90
2023-03-19T21:58:52.078Z,8.90
2023-03-19T22:01:24.705Z,8.90
2023-03-19T22:03:53.125Z,8.80
2023-03-19T22:06:21.983Z,8.70
2023-03-19T22:08:49.199Z,8.70
2023-03-19T22:11:23.023Z,8.70
2023-03-19T22:13:49.696Z,8.60
2023-03-19T22:16:25.894Z,8.60
2023-03-19T22:18:53.196Z,8.60
2023-03-19T22:21:22.463Z,8.40
2023-03-19T22:23:49.509Z,8.40
2023-03-19T22:26:21.848Z,8.30
2023-03-19T22:28:48.701Z,8.40
2023-03-19T22:31:15.438Z,8.40
2023-03-19T22:33:42.135Z,8.20
2023-03-19T22:36:13.680Z,8.30
2023-03-19T22:38:41.519Z,8.30
2023-03-19T22:41:27.651Z,8.50
2023-03-19T22:43:54.867Z,8.40
2023-03-19T22:46:22.154Z,8.50
2023-03-19T22:48:52.759Z,8.50
2023-03-19T22:51:22.570Z,8.60
2023-03-19T22:53:49.994Z,8.50
2023-03-19T22:56:17.655Z,8.50
2023-03-19T22:58:44.715Z,8.30
2023-03-19T23:01:41.670Z,8.30
2023-03-19T23:04:17.306Z,8.30
2023-03-19T23:06:44.119Z,8.30
2023-03-19T23:09:19.602Z,8.30
2023-03-19T23:11:48.315Z,8.20
2023-03-19T23:14:28.595Z,8.30
2023-03-19T23:19:32.766Z,8.40
2023-03-19T23:22:01.355Z,8.30
2023-03-19T23:24:30.270Z,8.30
2023-03-19T23:26:59.363Z,8.30
2023-03-19T23:29:32.508Z,8.30
2023-03-19T23:31:59.263Z,8.20
2023-03-19T23:34:26.916Z,8.10
2023-03-19T23:36:53.778Z,8.10
2023-03-19T23:39:21.148Z,8.10
2023-03-19T23:41:49.863Z,8.10
2023-03-19T23:44:19.325Z,8.00
2023-03-19T23:46:49.333Z,8.10
2023-03-19T23:49:24.903Z,8.10
2023-03-19T23:51:51.598Z,7.90
2023-03-19T23:54:29.597Z,7.90
2023-03-19T23:56:59.718Z,7.80
2023-03-19T23:59:29.332Z,7.80
